Time;durP1;ratioP1;P1;durP2;ratioP2;P2;SDS_P1;SDS_P2;PMS_P1;PMS_P2;Temp;Humidity;BMP_temperature;BMP_pressure;BME280_temperature;BME280_humidity;BME280_pressure;Samples;Min_cycle;Max_cycle;Signal;HPM_P1;HPM_P2
2021/10/22 00:01:48;;;;;;;4.33;1.15;;;;;;;7.88;74.12;99703.84;1733518;81;20999;-68
2021/10/22 00:04:15;;;;;;;10.13;1.40;;;;;;;7.88;74.25;99713.28;1746509;81;21033;-68
2021/10/22 00:06:41;;;;;;;8.73;1.30;;;;;;;7.85;74.17;99708.20;1750221;81;21773;-68
2021/10/22 00:09:07;;;;;;;4.28;1.47;;;;;;;7.81;74.23;99720.28;1728574;81;21035;-68
2021/10/22 00:11:35;;;;;;;5.65;1.10;;;;;;;7.75;74.10;99724.28;1752987;81;20962;-68
2021/10/22 00:14:02;;;;;;;5.67;1.20;;;;;;;7.72;74.09;99732.50;1739516;81;20910;-68
2021/10/22 00:16:28;;;;;;;8.30;1.40;;;;;;;7.68;74.07;99719.28;1743796;81;21166;-67
2021/10/22 00:18:54;;;;;;;6.10;1.20;;;;;;;7.61;74.07;99736.55;1730542;81;20909;-68
2021/10/22 00:21:21;;;;;;;3.25;1.07;;;;;;;7.57;74.12;99743.48;1738588;81;20921;-68
2021/10/22 00:23:47;;;;;;;4.08;1.12;;;;;;;7.55;74.12;99746.95;1747879;81;20901;-68
2021/10/22 00:26:13;;;;;;;6.93;1.10;;;;;;;7.50;74.11;99741.88;1757688;81;21704;-68
2021/10/22 00:28:40;;;;;;;5.47;0.98;;;;;;;7.48;74.15;99756.94;1742529;81;21033;-68
2021/10/22 00:31:12;;;;;;;6.08;1.50;;;;;;;7.45;74.16;99761.69;1761213;80;21082;-68
2021/10/22 00:33:39;;;;;;;4.90;1.30;;;;;;;7.40;74.16;99764.78;1741731;81;20897;-68
2021/10/22 00:36:07;;;;;;;7.55;1.47;;;;;;;7.36;74.15;99777.27;1750885;81;20901;-68
2021/10/22 00:38:35;;;;;;;5.42;1.20;;;;;;;7.34;74.19;99778.17;1750974;80;21517;-67
2021/10/22 00:41:01;;;;;;;5.70;1.50;;;;;;;7.31;74.19;99779.07;1745866;81;21283;-68
2021/10/22 00:43:30;;;;;;;7.53;1.22;;;;;;;7.30;74.19;99777.38;1733444;81;21398;-68
2021/10/22 00:45:55;;;;;;;3.92;1.17;;;;;;;7.28;74.18;99778.68;1725679;81;20942;-68
2021/10/22 00:48:22;;;;;;;5.53;1.30;;;;;;;7.24;74.21;99780.92;1744749;81;21381;-68
2021/10/22 00:51:01;;;;;;;3.67;1.10;;;;;;;7.24;74.26;99779.63;1728639;82;20862;-68
2021/10/22 00:53:28;;;;;;;9.35;1.60;;;;;;;7.23;74.18;99786.09;1737429;81;20903;-68
2021/10/22 00:55:55;;;;;;;7.55;1.85;;;;;;;7.21;74.16;99784.83;1736804;80;20894;-68
2021/10/22 00:58:22;;;;;;;7.50;1.32;;;;;;;7.19;74.19;99791.71;1760718;81;21477;-68
2021/10/22 01:00:48;;;;;;;;;;;;;;;7.18;74.15;99797.73;1745401;80;20854;-68
2021/10/22 01:03:15;;;;;;;9.63;1.35;;;;;;;7.15;74.16;99798.20;1717529;81;20136;-68
2021/10/22 01:05:43;;;;;;;4.20;1.10;;;;;;;7.14;74.17;99804.22;1731410;80;21425;-68
2021/10/22 01:08:10;;;;;;;7.28;1.42;;;;;;;7.11;74.15;99808.97;1731314;81;21502;-68
2021/10/22 01:10:40;;;;;;;7.00;1.32;;;;;;;7.10;74.16;99803.86;1752950;80;21406;-68
2021/10/22 01:13:07;;;;;;;6.17;1.35;;;;;;;7.09;74.21;99806.02;1761787;80;21461;-68
2021/10/22 01:15:34;;;;;;;5.30;1.00;;;;;;;7.08;74.15;99810.73;1758085;80;20889;-68
2021/10/22 01:18:02;;;;;;;;;;;;;;;7.06;74.19;99815.91;1758075;80;21759;-68
2021/10/22 01:20:29;;;;;;;7.90;1.20;;;;;;;7.05;74.17;99810.34;1772183;80;20415;-68
2021/10/22 01:22:56;;;;;;;8.23;1.35;;;;;;;7.03;74.15;99830.08;1760357;80;21752;-68
2021/10/22 01:25:27;;;;;;;4.12;1.27;;;;;;;7.03;74.21;99837.80;1727925;82;27998;-68
2021/10/22 01:27:55;;;;;;;6.33;1.20;;;;;;;7.02;74.16;99839.10;1740025;81;20893;-68
2021/10/22 01:30:24;;;;;;;7.80;1.10;;;;;;;7.03;74.17;99840.80;1752620;81;21402;-68
2021/10/22 01:32:56;;;;;;;4.00;0.90;;;;;;;7.03;74.17;99848.51;1767281;80;21382;-68
2021/10/22 01:35:22;;;;;;;5.55;1.42;;;;;;;7.02;74.18;99853.23;1757874;80;21478;-68
2021/10/22 01:37:48;;;;;;;8.50;1.52;;;;;;;7.02;74.15;99852.80;1743396;80;20932;-68
2021/10/22 01:40:15;;;;;;;3.25;1.00;;;;;;;7.02;74.15;99861.80;1745719;80;21572;-68
2021/10/22 01:42:44;;;;;;;6.42;0.98;;;;;;;7.04;74.17;99867.77;1754953;80;21334;-68
2021/10/22 01:45:10;;;;;;;4.03;1.03;;;;;;;7.05;74.15;99857.05;1743503;80;20937;-68
2021/10/22 01:47:37;;;;;;;7.35;1.10;;;;;;;7.02;74.07;99866.94;1748255;80;21488;-68
2021/10/22 01:50:04;;;;;;;5.97;1.65;;;;;;;7.01;74.07;99850.25;1764402;80;21327;-68
2021/10/22 01:52:30;;;;;;;7.40;1.37;;;;;;;6.97;74.06;99855.44;1764437;80;20886;-68
2021/10/22 01:54:56;;;;;;;7.20;1.20;;;;;;;6.95;74.11;99863.59;1741969;80;20914;-68
2021/10/22 01:57:23;;;;;;;6.43;1.13;;;;;;;6.92;74.05;99853.80;1756508;81;21520;-68
2021/10/22 01:59:50;;;;;;;8.88;1.35;;;;;;;6.89;74.04;99858.54;1767685;80;21562;-68
2021/10/22 02:02:16;;;;;;;4.03;1.05;;;;;;;6.87;74.06;99868.42;1753125;81;21726;-68
2021/10/22 02:04:44;;;;;;;5.33;1.30;;;;;;;6.86;74.03;99874.00;1736862;81;21528;-68
2021/10/22 02:07:10;;;;;;;9.18;1.77;;;;;;;6.82;74.04;99880.48;1751527;81;20870;-68
2021/10/22 02:09:37;;;;;;;5.60;1.00;;;;;;;6.81;74.03;99872.36;1756902;81;20901;-67
2021/10/22 02:12:06;;;;;;;4.87;0.95;;;;;;;6.80;74.04;99892.49;1739058;81;21497;-68
2021/10/22 02:14:32;;;;;;;6.42;1.20;;;;;;;6.76;74.04;99883.97;1765498;81;21426;-68
2021/10/22 02:16:58;;;;;;;7.70;1.40;;;;;;;6.74;74.03;99883.17;1748183;81;21359;-68
2021/10/22 02:19:25;;;;;;;12.80;1.32;;;;;;;6.73;74.03;99884.48;1730107;81;21386;-68
2021/10/22 02:21:51;;;;;;;10.58;1.72;;;;;;;6.69;74.03;99888.80;1741736;81;20934;-68
2021/10/22 02:24:17;;;;;;;7.25;1.75;;;;;;;6.69;74.04;99880.24;1753321;81;21351;-68
2021/10/22 02:26:43;;;;;;;8.23;1.03;;;;;;;6.67;74.05;99875.12;1750987;81;20929;-68
2021/10/22 02:29:09;;;;;;;4.73;1.00;;;;;;;6.66;74.02;99885.41;1747547;80;21434;-68
2021/10/22 02:31:38;;;;;;;9.93;1.60;;;;;;;6.62;74.03;99889.30;1753020;80;21513;-68
2021/10/22 02:34:03;;;;;;;4.53;1.93;;;;;;;6.60;74.05;99889.76;1763987;80;20873;-67
2021/10/22 02:36:30;;;;;;;5.20;1.20;;;;;;;6.60;74.07;99893.61;1741327;81;20970;-68
2021/10/22 02:38:55;;;;;;;9.23;1.23;;;;;;;6.60;74.03;99895.33;1741712;81;21469;-67
2021/10/22 02:41:22;;;;;;;8.37;1.27;;;;;;;6.59;74.09;99891.06;1746478;81;21630;-68
2021/10/22 02:43:48;;;;;;;7.45;1.40;;;;;;;6.56;74.06;99897.08;1755154;80;20924;-68
2021/10/22 02:46:16;;;;;;;8.40;1.30;;;;;;;6.55;74.07;99894.09;1760611;81;21710;-68
2021/10/22 02:48:43;;;;;;;5.87;1.15;;;;;;;6.54;74.10;99897.53;1752529;81;20926;-68
2021/10/22 02:51:15;;;;;;;6.80;1.30;;;;;;;6.53;74.09;99893.70;1760388;80;20911;-68
2021/10/22 02:53:41;;;;;;;7.83;1.10;;;;;;;6.52;74.13;99899.27;1745002;80;21457;-68
2021/10/22 02:56:07;;;;;;;5.53;1.20;;;;;;;6.52;74.09;99899.27;1753645;80;21379;-68
2021/10/22 02:58:33;;;;;;;5.97;1.70;;;;;;;6.51;74.10;99886.01;1759189;80;20946;-68
2021/10/22 03:01:00;;;;;;;9.70;1.87;;;;;;;6.50;74.11;99897.58;1762174;80;20921;-68
2021/10/22 03:03:26;;;;;;;8.23;1.47;;;;;;;6.48;74.09;99897.59;1750190;80;20918;-68
2021/10/22 03:05:52;;;;;;;6.37;1.17;;;;;;;6.45;74.12;99902.77;1761767;79;20891;-68
2021/10/22 03:08:17;;;;;;;5.77;1.30;;;;;;;6.44;74.11;99906.20;1752103;80;20969;-68
2021/10/22 03:10:43;;;;;;;6.73;1.60;;;;;;;6.43;74.13;99901.93;1767803;80;21016;-69
2021/10/22 03:13:09;;;;;;;7.40;1.83;;;;;;;6.40;74.14;99904.53;1761882;80;20925;-68
2021/10/22 03:15:35;;;;;;;5.13;1.97;;;;;;;6.40;74.17;99907.09;1754284;80;20890;-68
2021/10/22 03:18:01;;;;;;;5.37;1.40;;;;;;;6.37;74.17;99914.83;1757289;80;20929;-68
2021/10/22 03:20:31;;;;;;;7.08;1.55;;;;;;;6.38;74.19;99920.81;1767937;80;21183;-68
2021/10/22 03:22:57;;;;;;;8.45;1.37;;;;;;;6.35;74.17;99928.12;1755462;80;20930;-68
2021/10/22 03:25:23;;;;;;;4.87;1.50;;;;;;;6.34;74.19;99927.70;1742691;80;21587;-68
2021/10/22 03:27:49;;;;;;;6.43;1.50;;;;;;;6.33;74.19;99931.56;1759852;80;20906;-68
2021/10/22 03:30:15;;;;;;;6.70;1.82;;;;;;;6.33;74.20;99934.13;1747442;80;20874;-68
2021/10/22 03:32:41;;;;;;;9.68;1.77;;;;;;;6.32;74.19;99934.56;1755492;80;21361;-68
2021/10/22 03:35:10;;;;;;;5.00;1.52;;;;;;;6.31;74.22;99940.56;1753092;80;20839;-68
2021/10/22 03:37:36;;;;;;;5.50;1.47;;;;;;;6.28;74.21;99947.86;1752240;80;20946;-68
2021/10/22 03:40:04;;;;;;;11.10;2.37;;;;;;;6.27;74.25;99945.31;1759738;80;20946;-68
2021/10/22 03:42:30;;;;;;;6.37;1.50;;;;;;;6.25;74.23;99951.74;1758989;80;20883;-68
2021/10/22 03:44:56;;;;;;;7.10;1.70;;;;;;;6.24;74.24;99952.61;1759329;80;20859;-68
2021/10/22 03:47:22;;;;;;;7.12;1.42;;;;;;;6.25;74.30;99958.16;1756987;80;20914;-68
2021/10/22 03:49:49;;;;;;;5.90;1.47;;;;;;;6.27;74.33;99957.71;1761594;80;20945;-68
2021/10/22 03:52:15;;;;;;;7.62;1.60;;;;;;;6.29;74.34;99953.42;1756532;80;20914;-68
2021/10/22 03:54:40;;;;;;;7.00;1.43;;;;;;;6.32;74.33;99955.11;1756871;81;21611;-68
2021/10/22 03:57:07;;;;;;;7.43;1.53;;;;;;;6.34;74.34;99959.80;1742473;81;20941;-68
2021/10/22 03:59:33;;;;;;;6.10;1.40;;;;;;;6.36;74.31;99961.06;1748514;81;20907;-68
2021/10/22 04:01:59;;;;;;;6.03;1.33;;;;;;;6.36;74.33;99951.64;1734842;82;20917;-68
2021/10/22 04:04:31;;;;;;;12.65;1.47;;;;;;;6.37;74.31;99966.62;1748365;81;20938;-68
2021/10/22 04:06:57;;;;;;;6.22;1.37;;;;;;;6.39;74.33;99950.33;1728185;81;20893;-69
2021/10/22 04:09:27;;;;;;;8.10;1.57;;;;;;;6.41;74.34;99960.16;1755957;81;20915;-68
2021/10/22 04:11:53;;;;;;;9.78;1.77;;;;;;;6.43;74.35;99958.42;1753678;81;21366;-68
2021/10/22 04:14:20;;;;;;;13.35;1.87;;;;;;;6.44;74.32;99961.84;1759099;80;20902;-68
2021/10/22 04:16:49;;;;;;;12.65;1.77;;;;;;;6.45;74.35;99957.98;1750939;81;20889;-68
2021/10/22 04:19:16;;;;;;;11.75;1.82;;;;;;;6.45;74.35;99956.69;1731287;81;20894;-68
2021/10/22 04:21:42;;;;;;;13.65;1.85;;;;;;;6.46;74.33;99949.41;1761500;80;21434;-68
2021/10/22 04:24:08;;;;;;;7.28;1.62;;;;;;;6.46;74.31;99960.96;1764314;80;20893;-68
2021/10/22 04:26:34;;;;;;;7.03;1.80;;;;;;;6.46;74.31;99954.98;1766719;80;20921;-68
2021/10/22 04:29:00;;;;;;;8.58;2.25;;;;;;;6.43;74.37;99954.57;1766398;80;20926;-68
2021/10/22 04:31:26;;;;;;;9.47;1.77;;;;;;;6.43;74.35;99960.14;1763021;80;21587;-68
2021/10/22 04:33:52;;;;;;;13.17;2.10;;;;;;;6.43;74.33;99966.56;1755612;80;21404;-68
2021/10/22 04:36:18;;;;;;;9.10;2.07;;;;;;;6.41;74.38;99955.02;1748913;80;20870;-68
2021/10/22 04:41:37;;;;;;;7.17;1.95;;;;;;;6.38;74.34;99965.75;1759660;80;20910;-68
2021/10/22 04:44:03;;;;;;;8.08;1.90;;;;;;;6.37;74.36;99960.20;1768332;80;20918;-68
2021/10/22 04:46:29;;;;;;;5.90;1.52;;;;;;;6.34;74.36;99967.93;1768269;80;20858;-68
2021/10/22 04:48:57;;;;;;;8.85;1.82;;;;;;;6.33;74.35;99968.80;1761760;80;20907;-68
2021/10/22 04:51:23;;;;;;;9.78;1.90;;;;;;;6.31;74.40;99968.81;1767541;80;20942;-68
2021/10/22 04:53:49;;;;;;;13.15;1.65;;;;;;;6.30;74.39;99974.80;1762736;80;20950;-68
2021/10/22 04:56:19;;;;;;;4.37;1.50;;;;;;;6.29;74.40;99964.97;1767491;80;20925;-68
2021/10/22 04:58:47;;;;;;;8.33;1.87;;;;;;;6.29;74.44;99956.42;1761269;80;21524;-68
2021/10/22 05:01:14;;;;;;;14.73;2.30;;;;;;;6.29;74.43;99970.11;1763006;80;20934;-68
2021/10/22 05:03:40;;;;;;;;;;;;;;;6.31;74.42;99967.52;1763895;80;20910;-68
2021/10/22 05:06:06;;;;;;;9.08;1.50;;;;;;;6.31;74.49;99969.66;1768650;80;20563;-68
2021/10/22 05:08:32;;;;;;;7.53;1.47;;;;;;;6.32;74.44;99966.66;1764802;80;20934;-68
2021/10/22 05:11:00;;;;;;;9.75;2.15;;;;;;;6.32;74.43;99973.08;1768579;80;20922;-68
2021/10/22 05:13:26;;;;;;;8.78;2.42;;;;;;;6.31;74.41;99972.23;1761094;80;20910;-68
2021/10/22 05:15:52;;;;;;;6.03;1.92;;;;;;;6.32;74.44;99969.23;1771197;80;20885;-68
2021/10/22 05:18:19;;;;;;;7.92;2.25;;;;;;;6.32;74.41;99971.80;1768085;80;21442;-69
2021/10/22 05:20:45;;;;;;;9.73;2.08;;;;;;;6.31;74.45;99971.37;1768534;80;20898;-69
2021/10/22 05:23:11;;;;;;;17.37;1.72;;;;;;;6.30;74.44;99979.52;1758192;80;20979;-68
2021/10/22 05:25:37;;;;;;;8.73;1.52;;;;;;;6.29;74.46;99980.81;1762990;80;20903;-68
2021/10/22 05:28:04;;;;;;;6.25;1.77;;;;;;;6.28;74.46;99976.53;1774090;80;20957;-68
2021/10/22 05:30:30;;;;;;;8.53;1.52;;;;;;;6.28;74.54;99975.25;1781682;79;21308;-68
2021/10/22 05:32:56;;;;;;;5.93;1.60;;;;;;;6.28;74.49;99980.39;1765025;79;20885;-68
2021/10/22 05:35:22;;;;;;;6.50;1.62;;;;;;;6.30;74.59;99992.78;1722313;80;693594;-68
2021/10/22 05:37:48;;;;;;;16.40;2.95;;;;;;;6.30;74.59;99992.78;1724769;82;20945;-68
2021/10/22 05:40:14;;;;;;;12.83;2.13;;;;;;;6.31;74.53;99998.34;1721848;82;20949;-68
2021/10/22 05:42:40;;;;;;;10.68;1.70;;;;;;;6.33;74.55;99999.61;1675968;84;20961;-68
2021/10/22 05:45:07;;;;;;;10.05;2.00;;;;;;;6.33;74.54;99998.32;1685344;83;20925;-69
2021/10/22 05:47:34;;;;;;;9.38;1.87;;;;;;;6.34;74.58;100003.44;1727274;81;21013;-68
2021/10/22 05:50:00;;;;;;;8.28;1.95;;;;;;;6.35;74.58;100009.43;1712504;82;20885;-68
2021/10/22 05:52:27;;;;;;;10.72;1.62;;;;;;;6.38;74.67;100014.11;1699213;83;20917;-68
2021/10/22 05:54:52;;;;;;;7.90;1.60;;;;;;;6.39;74.59;100009.83;1716049;81;20944;-68
2021/10/22 05:57:19;;;;;;;10.90;2.60;;;;;;;6.40;74.62;100023.94;1700774;83;20950;-68
2021/10/22 05:59:45;;;;;;;7.62;2.25;;;;;;;6.43;74.62;100024.34;1686367;83;20954;-68
2021/10/22 06:02:11;;;;;;;11.77;2.10;;;;;;;6.44;74.65;100028.18;1698490;82;21438;-68
2021/10/22 06:04:37;;;;;;;10.17;1.87;;;;;;;6.48;74.90;100028.58;1731383;82;20917;-68
2021/10/22 06:07:03;;;;;;;6.93;1.73;;;;;;;6.48;74.90;100028.58;1694632;83;21374;-68
2021/10/22 06:09:29;;;;;;;10.30;2.30;;;;;;;6.50;74.65;100027.28;1730818;82;20907;-68
2021/10/22 06:11:56;;;;;;;7.08;1.75;;;;;;;6.51;74.66;100024.70;1707360;82;20898;-68
2021/10/22 06:14:22;;;;;;;12.50;2.25;;;;;;;6.54;74.68;100029.80;1706919;82;20946;-68
2021/10/22 06:16:48;;;;;;;9.43;2.20;;;;;;;6.60;74.69;100036.17;1695046;83;20867;-68
2021/10/22 06:19:22;;;;;;;13.68;2.47;;;;;;;6.69;74.74;100035.67;1694706;83;20946;-68
2021/10/22 06:22:35;;;;;;;11.40;2.17;;;;;;;6.76;74.73;100029.61;1708539;82;20952;-68
2021/10/22 06:24:12;;;;;;;7.35;2.02;;;;;;;6.82;74.72;100034.66;1676905;83;21004;-68
2021/10/22 06:26:42;;;;;;;13.68;3.08;;;;;;;6.87;74.69;100032.89;1670024;84;20962;-68
2021/10/22 06:29:12;;;;;;;13.48;2.40;;;;;;;6.93;74.71;100032.39;1722062;82;20901;-69
2021/10/22 06:31:40;;;;;;;12.25;2.37;;;;;;;7.02;74.74;100032.73;1733093;82;20905;-68
2021/10/22 06:34:08;;;;;;;4.22;1.92;;;;;;;7.11;74.75;100030.06;1702454;83;20952;-68
2021/10/22 06:36:35;;;;;;;8.50;2.15;;;;;;;7.20;74.72;100035.09;1717578;82;20905;-68
2021/10/22 06:39:03;;;;;;;8.28;2.15;;;;;;;7.23;74.67;100026.50;1687540;83;20891;-71
2021/10/22 06:41:29;;;;;;;11.08;2.35;;;;;;;7.23;74.70;100028.64;1678466;83;20973;-71
2021/10/22 06:43:55;;;;;;;13.03;3.83;;;;;;;7.20;74.60;100050.53;1705858;82;20995;-70
2021/10/22 06:46:21;;;;;;;8.33;2.33;;;;;;;7.16;74.58;100048.86;1678091;83;21819;-70
2021/10/22 06:48:47;;;;;;;5.37;1.75;;;;;;;7.16;74.67;100037.72;1712402;82;20956;-70
2021/10/22 06:51:17;;;;;;;7.80;2.27;;;;;;;7.16;74.68;100045.44;1682984;83;20921;-68
2021/10/22 06:53:44;;;;;;;8.55;2.08;;;;;;;7.18;74.65;100048.84;1716162;83;20964;-70
2021/10/22 06:56:10;;;;;;;7.25;2.20;;;;;;;7.18;74.69;100044.98;1701373;83;21018;-70
2021/10/22 06:58:37;;;;;;;12.47;2.35;;;;;;;7.21;74.73;100049.66;1696570;83;20966;-70
2021/10/22 07:01:03;;;;;;;8.40;2.03;;;;;;;7.21;74.68;100040.66;1692192;83;20863;-70
2021/10/22 07:03:38;;;;;;;8.75;2.27;;;;;;;7.20;74.64;100038.95;1713824;82;21369;-70
2021/10/22 07:08:25;;;;;;;8.55;2.02;;;;;;;7.24;74.68;100035.48;1699339;83;21424;-68
2021/10/22 07:10:51;;;;;;;9.35;2.10;;;;;;;7.25;74.67;100051.33;1698339;83;20921;-69
2021/10/22 07:13:18;;;;;;;14.33;3.08;;;;;;;7.28;74.69;100065.41;1688623;83;21465;-69
2021/10/22 07:15:44;;;;;;;5.62;2.10;;;;;;;7.31;74.67;100057.66;1695177;83;20921;-71
2021/10/22 07:18:10;;;;;;;10.27;2.23;;;;;;;7.33;74.64;100053.78;1700763;82;22095;-71
2021/10/22 07:20:36;;;;;;;6.95;2.27;;;;;;;7.36;74.63;100064.47;1693061;83;20937;-70
2021/10/22 07:23:07;;;;;;;9.85;1.98;;;;;;;7.41;74.65;100075.55;1704106;83;20874;-71
2021/10/22 07:25:38;;;;;;;9.25;2.35;;;;;;;7.46;74.69;100066.06;1681214;83;20973;-71
2021/10/22 07:28:12;;;;;;;9.00;2.47;;;;;;;7.48;74.63;100069.03;1700128;83;20946;-71
2021/10/22 07:30:41;;;;;;;10.70;2.17;;;;;;;7.53;74.63;100072.83;1678195;83;21038;-71
2021/10/22 07:33:07;;;;;;;11.30;2.72;;;;;;;7.54;74.60;100074.10;1696897;83;20996;-71
2021/10/22 07:35:34;;;;;;;15.32;1.92;;;;;;;7.55;74.58;100068.09;1696089;83;20988;-71
2021/10/22 07:38:00;;;;;;;11.43;2.12;;;;;;;7.55;74.57;100072.38;1691570;83;21081;-71
2021/10/22 07:40:26;;;;;;;11.73;1.92;;;;;;;7.55;74.55;100080.09;1681566;83;21563;-71
2021/10/22 07:42:53;;;;;;;9.73;2.23;;;;;;;7.58;74.58;100068.48;1689033;83;21064;-71
2021/10/22 07:45:19;;;;;;;12.68;2.37;;;;;;;7.60;74.57;100071.89;1679165;83;21782;-71
2021/10/22 07:47:45;;;;;;;10.93;2.37;;;;;;;7.64;74.59;100073.55;1682986;83;594161;-72
2021/10/22 07:50:11;;;;;;;5.87;1.80;;;;;;;7.65;74.51;100071.40;1695777;82;21408;-72
2021/10/22 07:52:37;;;;;;;10.73;2.60;;;;;;;7.68;74.55;100069.22;1672767;83;20987;-72
2021/10/22 07:55:05;;;;;;;9.20;2.00;;;;;;;7.81;74.64;100077.16;1646898;85;21018;-72
2021/10/22 07:57:32;;;;;;;4.85;1.77;;;;;;;8.01;74.66;100069.17;1657605;84;21409;-71
2021/10/22 08:00:00;;;;;;;8.25;1.80;;;;;;;8.16;74.66;100070.24;1668665;84;20917;-71
2021/10/22 08:02:26;;;;;;;9.33;2.10;;;;;;;8.35;74.60;100077.25;1663094;84;20969;-71
2021/10/22 08:04:53;;;;;;;7.55;1.70;;;;;;;8.53;74.68;100078.25;1679306;84;20917;-71
2021/10/22 08:07:30;;;;;;;11.90;2.35;;;;;;;8.68;74.53;100066.84;1648250;85;20908;-71
2021/10/22 08:09:58;;;;;;;19.35;2.12;;;;;;;8.78;74.48;100076.12;1657186;84;20925;-72
2021/10/22 08:12:25;;;;;;;5.28;1.80;;;;;;;8.89;74.48;100073.73;1671717;84;20952;-72
2021/10/22 08:14:51;;;;;;;12.03;2.35;;;;;;;9.00;74.45;100063.23;1700757;82;20923;-72
2021/10/22 08:17:22;;;;;;;16.42;3.00;;;;;;;9.10;74.45;100068.63;1695587;82;20944;-71
2021/10/22 08:19:58;;;;;;;9.15;2.05;;;;;;;9.25;74.52;100065.77;1695557;82;20920;-71
2021/10/22 08:22:27;;;;;;;4.65;1.60;;;;;;;9.40;74.38;100057.28;1705578;82;20952;-71
2021/10/22 08:25:07;;;;;;;5.55;1.70;;;;;;;9.46;74.36;100070.06;1683916;82;20936;-71
2021/10/22 08:27:37;;;;;;;10.25;1.67;;;;;;;9.51;74.23;100064.37;1702141;82;21453;-71
2021/10/22 08:30:08;;;;;;;10.63;2.35;;;;;;;9.53;74.20;100067.33;1698883;82;20916;-71
2021/10/22 08:32:34;;;;;;;10.28;2.35;;;;;;;9.51;74.16;100061.79;1693984;82;20905;-71
2021/10/22 08:35:05;;;;;;;7.65;1.92;;;;;;;9.47;74.06;100054.98;1694374;82;20971;-71
2021/10/22 08:37:33;;;;;;;12.15;2.00;;;;;;;9.40;74.06;100063.30;1672777;84;20918;-71
2021/10/22 08:39:58;;;;;;;;;;;;;;;9.33;73.97;100054.45;1677838;84;20926;-72
2021/10/22 08:42:26;;;;;;;10.47;1.90;;;;;;;9.25;73.75;100071.37;1672648;84;20242;-71
2021/10/22 08:44:53;;;;;;;8.25;1.87;;;;;;;9.17;73.89;100057.33;1712943;82;21234;-71
2021/10/22 08:47:22;;;;;;;4.45;1.60;;;;;;;9.14;74.02;100062.54;1710163;82;21381;-70
2021/10/22 08:49:48;;;;;;;9.60;2.20;;;;;;;9.13;74.00;100067.73;1703226;82;20960;-71
2021/10/22 08:52:15;;;;;;;10.43;1.98;;;;;;;9.12;73.93;100069.45;1702485;82;20872;-71
2021/10/22 08:54:41;;;;;;;8.48;1.52;;;;;;;9.12;73.95;100060.43;1700884;82;20916;-73
2021/10/22 08:57:09;;;;;;;9.58;1.62;;;;;;;9.17;73.91;100062.92;1713505;82;20933;-71
2021/10/22 08:59:35;;;;;;;8.95;2.40;;;;;;;9.19;73.84;100063.30;1690980;83;20917;-71
2021/10/22 09:02:22;;;;;;;10.20;1.90;;;;;;;9.24;73.83;100051.61;1690411;82;20971;-71
2021/10/22 09:04:56;;;;;;;6.50;1.67;;;;;;;9.29;73.77;100052.37;1661223;84;21470;-71
2021/10/22 09:07:22;;;;;;;9.20;1.90;;;;;;;9.33;73.67;100052.72;1656052;84;20937;-71
2021/10/22 09:09:53;;;;;;;11.35;2.30;;;;;;;9.36;73.70;100055.20;1671715;84;20882;-71
2021/10/22 09:12:19;;;;;;;12.78;2.17;;;;;;;9.40;73.68;100050.39;1644169;84;20966;-72
2021/10/22 09:15:00;;;;;;;8.48;1.95;;;;;;;9.43;73.58;100061.09;1670922;84;20976;-72
2021/10/22 09:17:40;;;;;;;13.60;2.25;;;;;;;9.39;73.27;100056.44;1659356;84;21089;-72
2021/10/22 09:20:08;;;;;;;4.33;1.70;;;;;;;9.37;73.40;100056.05;1669661;84;20965;-72
2021/10/22 09:22:35;;;;;;;13.53;2.02;;;;;;;9.36;73.26;100050.52;1669773;84;20932;-72
2021/10/22 09:25:07;;;;;;;9.18;2.60;;;;;;;9.31;73.20;100055.77;1672828;84;20957;-72
2021/10/22 09:27:47;;;;;;;6.42;1.47;;;;;;;9.31;73.33;100052.34;1670171;84;20920;-72
2021/10/22 09:30:29;;;;;;;11.00;1.72;;;;;;;9.32;73.26;100054.89;1673179;84;20917;-72
2021/10/22 09:33:02;;;;;;;8.85;1.47;;;;;;;9.35;73.25;100057.84;1667732;84;20949;-72
2021/10/22 09:35:48;;;;;;;8.68;2.30;;;;;;;9.37;73.22;100063.36;1647526;84;21445;-72
2021/10/22 09:38:27;;;;;;;9.38;2.22;;;;;;;9.40;73.16;100055.99;1672160;84;20972;-72
2021/10/22 09:41:04;;;;;;;8.75;1.98;;;;;;;9.42;73.11;100065.41;1666211;84;20913;-72
2021/10/22 09:43:35;;;;;;;9.98;1.95;;;;;;;9.45;72.91;100064.05;1670596;84;20902;-72
2021/10/22 09:46:17;;;;;;;10.08;2.22;;;;;;;9.44;72.89;100050.74;1667237;84;20953;-72
2021/10/22 09:48:48;;;;;;;6.28;1.80;;;;;;;9.47;72.94;100047.25;1667904;84;21385;-71
2021/10/22 09:51:33;;;;;;;11.25;2.00;;;;;;;9.53;72.96;100056.16;1672803;84;20984;-71
2021/10/22 09:54:12;;;;;;;15.10;2.72;;;;;;;9.56;72.87;100047.91;1666406;84;20933;-72
2021/10/22 09:59:27;;;;;;;11.60;2.42;;;;;;;9.58;72.55;100047.88;1823089;75;21932;-71
2021/10/22 10:01:56;;;;;;;9.40;2.20;;;;;;;9.49;72.57;100036.02;1802552;78;20991;-71
2021/10/22 10:04:24;;;;;;;11.18;1.87;;;;;;;9.45;72.32;100033.09;1799860;78;20897;-71
2021/10/22 10:06:52;;;;;;;6.28;1.65;;;;;;;9.42;72.31;100033.15;1808871;77;20927;-71
2021/10/22 10:09:22;;;;;;;12.40;1.98;;;;;;;9.40;72.43;100029.75;1823146;77;20880;-72
2021/10/22 10:11:49;;;;;;;7.33;1.55;;;;;;;9.41;72.34;100040.48;1664097;78;10001044;-72
2021/10/22 10:14:17;;;;;;;7.12;2.00;;;;;;;9.42;72.31;100024.56;1807627;77;20868;-72
2021/10/22 10:16:47;;;;;;;8.98;1.80;;;;;;;9.39;72.14;100024.63;1801765;77;20881;-72
2021/10/22 10:19:23;;;;;;;11.30;2.12;;;;;;;9.39;72.28;100022.04;1819376;77;20888;-72
2021/10/22 10:22:02;;;;;;;10.98;1.47;;;;;;;9.39;72.19;100016.44;1819995;77;20881;-72
2021/10/22 10:24:49;;;;;;;19.02;10.30;;;;;;;9.40;71.96;100010.84;1816083;77;21359;-72
2021/10/22 10:27:21;;;;;;;12.00;2.05;;;;;;;9.39;72.05;100015.15;1776006;79;20909;-72
2021/10/22 10:29:55;;;;;;;8.65;1.70;;;;;;;9.37;72.00;100011.75;1789385;78;20901;-72
2021/10/22 10:32:28;;;;;;;13.80;2.00;;;;;;;9.35;71.93;100008.38;1791563;78;20940;-72
2021/10/22 10:34:58;;;;;;;11.05;1.92;;;;;;;9.37;71.99;100010.46;1813006;77;20909;-72
2021/10/22 10:37:33;;;;;;;6.85;1.75;;;;;;;9.35;71.85;100022.58;1791111;78;20885;-72
2021/10/22 10:40:14;;;;;;;5.45;1.65;;;;;;;9.33;71.70;100011.88;1812651;77;20873;-72
2021/10/22 10:42:56;;;;;;;8.03;2.27;;;;;;;9.31;71.80;100019.65;1787253;78;20935;-72
2021/10/22 10:45:29;;;;;;;8.53;2.37;;;;;;;9.28;71.72;100017.98;1776391;78;20897;-72
2021/10/22 10:48:09;;;;;;;8.23;2.00;;;;;;;9.28;71.74;100008.09;1776875;78;20983;-72
2021/10/22 10:50:56;;;;;;;10.88;1.87;;;;;;;9.27;71.64;100016.72;1790326;78;21554;-71
2021/10/22 10:53:35;;;;;;;9.88;2.22;;;;;;;9.26;71.65;100005.98;1784497;79;21603;-72
2021/10/22 10:56:08;;;;;;;10.78;2.55;;;;;;;9.23;71.53;100011.21;1789100;78;21303;-72
2021/10/22 10:58:44;;;;;;;4.67;1.40;;;;;;;9.19;71.50;99999.26;1785272;78;22130;-72
2021/10/22 11:01:24;;;;;;;11.35;2.30;;;;;;;9.17;71.46;99990.70;1790279;79;21531;-72
2021/10/22 11:03:52;;;;;;;8.68;2.10;;;;;;;9.12;71.47;100008.84;1790405;79;21039;-72
2021/10/22 11:06:47;;;;;;;5.65;1.80;;;;;;;9.06;71.46;99999.94;1771669;80;20951;-72
2021/10/22 11:09:32;;;;;;;11.63;2.45;;;;;;;9.01;71.47;100009.48;1799455;79;21471;-71
2021/10/22 11:12:05;;;;;;;8.03;1.70;;;;;;;8.95;71.47;100003.16;1751720;79;21075;-71
2021/10/22 11:14:44;;;;;;;6.62;2.20;;;;;;;8.90;71.52;99989.06;1782141;80;21487;-71
2021/10/22 11:17:14;;;;;;;7.15;2.10;;;;;;;8.84;71.59;99978.87;1786551;79;21028;-71
2021/10/22 11:19:44;;;;;;;11.60;1.87;;;;;;;8.81;71.52;99998.73;1780694;79;20861;-71
2021/10/22 11:22:18;;;;;;;8.58;1.87;;;;;;;8.72;71.50;99980.42;1782247;80;21449;-71
2021/10/22 11:24:43;;;;;;;8.38;2.00;;;;;;;8.70;71.63;99983.91;1781400;79;21382;-71
2021/10/22 11:27:20;;;;;;;8.23;1.98;;;;;;;8.69;71.53;99975.77;1803174;79;21485;-71
2021/10/22 11:29:49;;;;;;;8.48;1.72;;;;;;;8.61;71.56;99982.34;1790212;77;21389;-71
2021/10/22 11:32:22;;;;;;;11.03;2.37;;;;;;;8.58;71.64;99970.36;1793108;78;21536;-71
2021/10/22 11:34:58;;;;;;;10.48;2.55;;;;;;;8.56;71.62;99953.23;1800314;77;21561;-71
2021/10/22 11:37:28;;;;;;;9.00;2.10;;;;;;;8.52;71.59;99955.45;1770941;78;21538;-71
2021/10/22 11:39:56;;;;;;;9.68;2.08;;;;;;;8.49;71.63;99958.08;1790025;79;20887;-71
2021/10/22 11:42:31;;;;;;;6.87;1.62;;;;;;;8.49;71.65;99964.08;1797740;79;21525;-71
2021/10/22 11:45:06;;;;;;;5.78;1.87;;;;;;;8.51;71.62;99959.75;1756238;80;21376;-71
2021/10/22 11:47:44;;;;;;;12.33;2.20;;;;;;;8.54;71.58;99956.27;1756287;80;21331;-71
2021/10/22 11:50:26;;;;;;;8.43;2.00;;;;;;;8.58;71.53;99958.77;1762669;79;20964;-71
2021/10/22 11:53:11;;;;;;;9.18;2.22;;;;;;;8.62;71.55;99946.23;1782712;79;21580;-71